createdAt,value
2023-03-27T00:02:06.249Z,100.00
2023-03-27T00:04:32.900Z,100.00
2023-03-27T00:06:59.639Z,100.00
2023-03-27T00:09:27.835Z,100.00
2023-03-27T00:11:56.287Z,100.00
2023-03-27T00:14:23.962Z,100.00
2023-03-27T00:16:51.172Z,100.00
2023-03-27T00:19:18.971Z,100.00
2023-03-27T00:21:45.810Z,100.00
2023-03-27T00:24:12.768Z,100.00
2023-03-27T00:26:40.794Z,100.00
2023-03-27T00:29:07.970Z,100.00
2023-03-27T00:31:35.069Z,100.00
2023-03-27T00:34:02.709Z,100.00
2023-03-27T00:36:29.327Z,100.00
2023-03-27T00:38:56.029Z,100.00
2023-03-27T00:41:23.390Z,100.00
2023-03-27T00:43:53.355Z,100.00
2023-03-27T00:46:38.746Z,100.00
2023-03-27T00:49:09.696Z,100.00
2023-03-27T00:51:37.777Z,100.00
2023-03-27T00:54:06.155Z,100.00
2023-03-27T00:56:33.945Z,100.00
2023-03-27T00:59:03.390Z,100.00
2023-03-27T01:01:32.112Z,100.00
2023-03-27T01:04:06.266Z,100.00
2023-03-27T01:06:33.739Z,100.00
2023-03-27T01:09:00.422Z,100.00
2023-03-27T01:11:51.205Z,100.00
2023-03-27T01:14:42.672Z,100.00
2023-03-27T01:17:40.294Z,100.00
2023-03-27T01:20:30.180Z,100.00
2023-03-27T01:23:35.316Z,100.00
2023-03-27T01:26:35.700Z,100.00
2023-03-27T01:29:28.145Z,100.00
2023-03-27T01:32:17.570Z,100.00
2023-03-27T01:35:01.130Z,100.00
2023-03-27T01:37:52.305Z,100.00
2023-03-27T01:40:27.884Z,100.00
2023-03-27T01:43:10.581Z,100.00
2023-03-27T01:45:46.473Z,100.00
2023-03-27T01:48:25.912Z,100.00
2023-03-27T01:50:57.424Z,100.00
2023-03-27T01:53:40.628Z,100.00
2023-03-27T01:56:26.081Z,100.00
2023-03-27T01:58:59.290Z,100.00
2023-03-27T02:01:38.372Z,100.00
2023-03-27T02:04:10.826Z,100.00
2023-03-27T02:06:47.870Z,100.00
2023-03-27T02:09:43.312Z,100.00
2023-03-27T02:12:16.463Z,100.00
2023-03-27T02:15:22.997Z,100.00
2023-03-27T02:17:53.080Z,100.00
2023-03-27T02:20:20.915Z,100.00
2023-03-27T02:22:50.519Z,100.00
2023-03-27T02:25:32.515Z,100.00
2023-03-27T02:28:12.560Z,100.00
2023-03-27T02:30:47.154Z,100.00
2023-03-27T02:34:05.535Z,100.00
2023-03-27T02:36:54.972Z,100.00
2023-03-27T02:39:50.708Z,100.00
2023-03-27T02:42:42.949Z,100.00
2023-03-27T02:45:47.915Z,100.00
2023-03-27T02:48:38.777Z,100.00
2023-03-27T02:51:15.323Z,100.00
2023-03-27T02:54:11.420Z,100.00
2023-03-27T02:56:44.757Z,100.00
2023-03-27T02:59:35.606Z,100.00
2023-03-27T03:02:09.562Z,100.00
2023-03-27T03:04:57.130Z,100.00
2023-03-27T03:07:30.069Z,100.00
2023-03-27T03:09:56.648Z,100.00
2023-03-27T03:12:23.279Z,100.00
2023-03-27T03:14:50.063Z,100.00
2023-03-27T03:17:16.908Z,100.00
2023-03-27T03:19:45.262Z,100.00
2023-03-27T03:22:13.045Z,100.00
2023-03-27T03:24:42.034Z,100.00
2023-03-27T03:27:10.728Z,100.00
2023-03-27T03:29:48.492Z,100.00
2023-03-27T03:32:18.439Z,100.00
2023-03-27T03:34:48.353Z,100.00
2023-03-27T03:37:15.724Z,100.00
2023-03-27T03:39:42.365Z,100.00
2023-03-27T03:42:09.024Z,100.00
2023-03-27T03:44:37.176Z,100.00
2023-03-27T03:47:22.685Z,100.00
2023-03-27T03:49:50.344Z,100.00
2023-03-27T03:52:17.466Z,100.00
2023-03-27T03:54:46.560Z,100.00
2023-03-27T03:57:13.488Z,100.00
2023-03-27T03:59:40.655Z,100.00
2023-03-27T04:02:37.535Z,100.00
2023-03-27T04:05:10.496Z,100.00
2023-03-27T04:07:39.900Z,100.00
2023-03-27T04:10:19.177Z,100.00
2023-03-27T04:12:48.488Z,100.00
2023-03-27T04:15:22.414Z,100.00
2023-03-27T04:18:08.138Z,100.00
2023-03-27T04:20:35.830Z,100.00
2023-03-27T04:23:04.734Z,100.00
2023-03-27T04:25:35.577Z,100.00
2023-03-27T04:28:02.500Z,100.00
2023-03-27T04:30:36.999Z,100.00
2023-03-27T04:33:22.972Z,100.00
2023-03-27T04:36:07.222Z,100.00
2023-03-27T04:38:53.185Z,100.00
2023-03-27T04:41:21.230Z,100.00
2023-03-27T04:43:47.876Z,100.00
2023-03-27T04:46:14.442Z,100.00
2023-03-27T04:48:43.000Z,100.00
2023-03-27T04:51:20.882Z,100.00
2023-03-27T04:53:48.161Z,100.00
2023-03-27T04:56:16.136Z,100.00
2023-03-27T04:58:45.695Z,100.00
2023-03-27T05:01:15.583Z,100.00
2023-03-27T05:04:02.501Z,100.00
2023-03-27T05:06:53.390Z,100.00
2023-03-27T05:09:21.689Z,100.00
2023-03-27T05:11:50.073Z,100.00
2023-03-27T05:14:22.084Z,100.00
2023-03-27T05:16:50.520Z,100.00
2023-03-27T05:19:19.362Z,100.00
2023-03-27T05:21:52.480Z,100.00
2023-03-27T05:24:19.506Z,100.00
2023-03-27T05:26:47.131Z,100.00
2023-03-27T05:29:15.308Z,100.00
2023-03-27T05:31:44.892Z,100.00
2023-03-27T05:34:50.707Z,100.00
2023-03-27T05:37:18.001Z,100.00
2023-03-27T05:40:17.046Z,100.00
2023-03-27T05:42:46.972Z,100.00
2023-03-27T05:45:14.096Z,100.00
2023-03-27T05:47:50.644Z,100.00
2023-03-27T05:50:19.154Z,100.00
2023-03-27T05:52:47.791Z,100.00
2023-03-27T05:55:17.366Z,100.00
2023-03-27T05:57:43.975Z,100.00
2023-03-27T06:00:16.357Z,100.00
2023-03-27T06:02:44.868Z,100.00
2023-03-27T06:05:15.288Z,100.00
2023-03-27T06:07:50.702Z,100.00
2023-03-27T06:10:20.166Z,100.00
2023-03-27T06:13:13.839Z,100.00
2023-03-27T06:15:54.349Z,100.00
2023-03-27T06:18:43.793Z,100.00
2023-03-27T06:21:13.484Z,100.00
2023-03-27T06:23:40.178Z,100.00
2023-03-27T06:26:12.673Z,100.00
2023-03-27T06:28:40.396Z,100.00
2023-03-27T06:31:08.425Z,100.00
2023-03-27T06:33:41.085Z,100.00
2023-03-27T06:36:18.172Z,100.00
2023-03-27T06:38:47.429Z,100.00
2023-03-27T06:41:14.587Z,100.00
2023-03-27T06:44:16.648Z,100.00
2023-03-27T06:47:10.092Z,100.00
2023-03-27T06:50:07.462Z,100.00
2023-03-27T06:52:34.361Z,100.00
2023-03-27T06:55:20.234Z,100.00
2023-03-27T06:57:55.396Z,100.00
2023-03-27T07:00:25.832Z,100.00
2023-03-27T07:03:13.354Z,100.00
2023-03-27T07:05:56.826Z,100.00
2023-03-27T07:08:26.897Z,100.00
2023-03-27T07:11:10.570Z,100.00
2023-03-27T07:13:41.611Z,100.00
2023-03-27T07:16:15.652Z,100.00
2023-03-27T07:18:42.400Z,100.00
2023-03-27T07:21:09.257Z,100.00
2023-03-27T07:23:35.904Z,100.00
2023-03-27T07:26:05.996Z,100.00
2023-03-27T07:29:10.944Z,100.00
2023-03-27T07:31:55.904Z,100.00
2023-03-27T07:34:49.105Z,100.00
2023-03-27T07:37:38.107Z,100.00
2023-03-27T07:40:40.510Z,100.00
2023-03-27T07:43:26.120Z,100.00
2023-03-27T07:45:53.021Z,100.00
2023-03-27T07:48:19.630Z,100.00
2023-03-27T07:50:47.999Z,100.00
2023-03-27T07:53:33.553Z,100.00
2023-03-27T07:56:10.875Z,100.00
2023-03-27T07:58:38.930Z,100.00
2023-03-27T08:01:06.207Z,100.00
2023-03-27T08:03:34.212Z,100.00
2023-03-27T08:06:01.334Z,100.00
2023-03-27T08:08:30.685Z,100.00
2023-03-27T08:11:01.686Z,100.00
2023-03-27T08:13:35.640Z,100.00
2023-03-27T08:16:10.399Z,100.00
2023-03-27T08:18:37.894Z,100.00
2023-03-27T08:21:08.400Z,100.00
2023-03-27T08:23:37.530Z,98.32
2023-03-27T08:26:22.491Z,98.96
2023-03-27T08:28:56.903Z,100.00
2023-03-27T08:31:30.467Z,100.00
2023-03-27T08:34:01.765Z,100.00
2023-03-27T08:36:40.132Z,95.65
2023-03-27T08:39:08.171Z,96.81
2023-03-27T08:41:51.575Z,100.00
2023-03-27T08:44:30.780Z,100.00
2023-03-27T08:47:04.370Z,100.00
2023-03-27T08:49:42.107Z,95.39
2023-03-27T08:52:32.677Z,90.58
2023-03-27T08:55:06.797Z,85.73
2023-03-27T08:57:38.347Z,84.96
2023-03-27T09:00:21.201Z,79.85
2023-03-27T09:02:57.501Z,72.86
2023-03-27T09:05:40.805Z,70.22
2023-03-27T09:08:32.149Z,70.70
2023-03-27T09:11:24.853Z,65.47
2023-03-27T09:13:57.700Z,60.60
2023-03-27T09:16:39.654Z,60.93
2023-03-27T09:19:17.156Z,57.44
2023-03-27T09:21:51.249Z,57.59
2023-03-27T09:24:41.694Z,56.42
2023-03-27T09:27:37.714Z,55.00
2023-03-27T09:30:29.983Z,53.61
2023-03-27T09:33:12.280Z,59.88
2023-03-27T09:35:42.245Z,70.93
2023-03-27T09:38:31.955Z,88.99
2023-03-27T09:41:12.866Z,98.42
2023-03-27T09:43:59.853Z,100.00
2023-03-27T09:46:28.297Z,100.00
2023-03-27T09:49:09.529Z,100.00
2023-03-27T09:51:51.608Z,98.14
2023-03-27T09:54:52.142Z,91.46
2023-03-27T09:57:21.120Z,74.50
2023-03-27T10:00:09.437Z,69.46
2023-03-27T10:02:41.609Z,59.61
2023-03-27T10:05:20.106Z,62.46
2023-03-27T10:07:52.086Z,54.28
2023-03-27T10:10:45.685Z,58.21
2023-03-27T10:13:27.235Z,55.67
2023-03-27T10:16:04.454Z,60.25
2023-03-27T10:18:44.181Z,57.89
2023-03-27T10:21:26.122Z,58.57
2023-03-27T10:24:18.729Z,52.57
2023-03-27T10:27:12.077Z,47.83
2023-03-27T10:29:45.765Z,49.64
2023-03-27T10:32:14.785Z,45.58
2023-03-27T10:34:55.651Z,45.38
2023-03-27T10:37:41.550Z,50.55
2023-03-27T10:40:43.126Z,55.05
2023-03-27T10:43:32.981Z,58.69
2023-03-27T10:46:06.329Z,59.04
2023-03-27T10:48:53.489Z,54.53
2023-03-27T10:51:45.860Z,53.52
2023-03-27T10:54:21.132Z,57.95
2023-03-27T10:57:12.468Z,58.69
2023-03-27T10:59:51.580Z,62.48
2023-03-27T11:02:34.186Z,63.98
2023-03-27T11:05:39.458Z,64.22
2023-03-27T11:08:51.303Z,59.94
2023-03-27T11:11:27.552Z,54.93
2023-03-27T11:14:02.366Z,56.41
2023-03-27T11:16:41.023Z,52.97
2023-03-27T11:19:52.585Z,51.87
2023-03-27T11:23:04.605Z,50.96
2023-03-27T11:25:46.467Z,52.82
2023-03-27T11:28:55.008Z,48.28
2023-03-27T11:31:40.891Z,45.94
2023-03-27T11:34:34.026Z,45.93
2023-03-27T11:37:51.672Z,45.54
2023-03-27T11:40:20.272Z,43.93
2023-03-27T11:42:50.984Z,44.07
2023-03-27T11:45:23.459Z,44.80
2023-03-27T11:48:16.376Z,44.52
2023-03-27T11:51:15.756Z,44.57
2023-03-27T11:54:24.275Z,46.83
2023-03-27T11:56:57.967Z,53.08
2023-03-27T12:00:27.580Z,81.42
2023-03-27T12:03:25.871Z,96.13
2023-03-27T12:06:20.841Z,100.00
2023-03-27T12:09:17.800Z,100.00
2023-03-27T12:12:25.446Z,100.00
2023-03-27T12:14:52.140Z,100.00
2023-03-27T12:17:44.667Z,100.00
2023-03-27T12:20:29.637Z,100.00
2023-03-27T12:23:30.527Z,100.00
2023-03-27T12:26:35.132Z,100.00
2023-03-27T12:29:39.623Z,100.00
2023-03-27T12:32:08.160Z,100.00
2023-03-27T12:34:43.884Z,88.81
2023-03-27T12:37:13.662Z,68.01
2023-03-27T12:39:53.929Z,74.60
2023-03-27T12:42:43.893Z,60.66
2023-03-27T12:45:19.522Z,66.38
2023-03-27T12:48:11.651Z,78.51
2023-03-27T12:50:53.589Z,88.24
2023-03-27T12:53:50.970Z,93.54
2023-03-27T12:56:17.727Z,86.77
2023-03-27T12:58:51.459Z,67.15
2023-03-27T13:01:51.859Z,51.57
2023-03-27T13:04:24.873Z,49.62
2023-03-27T13:07:00.133Z,45.67
2023-03-27T13:10:07.585Z,45.38
2023-03-27T13:12:57.507Z,44.49
2023-03-27T13:15:50.093Z,44.26
2023-03-27T13:19:10.434Z,41.95
2023-03-27T13:22:06.044Z,42.05
2023-03-27T13:24:50.351Z,39.81
2023-03-27T13:27:37.898Z,38.77
2023-03-27T13:30:05.758Z,36.99
2023-03-27T13:33:30.117Z,38.17
2023-03-27T13:35:57.572Z,41.93
2023-03-27T13:38:53.189Z,49.90
2023-03-27T13:41:45.684Z,55.83
2023-03-27T13:44:30.877Z,62.28
2023-03-27T13:47:09.856Z,68.43
2023-03-27T13:49:46.067Z,75.09
2023-03-27T13:52:46.465Z,87.00
2023-03-27T13:55:17.145Z,94.62
2023-03-27T13:58:31.205Z,91.90
2023-03-27T14:01:07.742Z,88.83
2023-03-27T14:04:23.862Z,69.89
2023-03-27T14:07:38.232Z,55.48
2023-03-27T14:10:34.383Z,50.85
2023-03-27T14:13:22.611Z,49.12
2023-03-27T14:16:03.203Z,48.40
2023-03-27T14:19:19.560Z,47.42
2023-03-27T14:22:24.197Z,46.10
2023-03-27T14:25:12.428Z,45.15
2023-03-27T14:27:48.776Z,42.89
2023-03-27T14:30:21.552Z,40.63
2023-03-27T14:33:06.451Z,40.07
2023-03-27T14:35:38.027Z,38.26
2023-03-27T14:38:35.938Z,37.27
2023-03-27T14:41:05.914Z,37.96
2023-03-27T14:43:52.283Z,41.17
2023-03-27T14:46:22.797Z,40.65
2023-03-27T14:48:57.968Z,41.98
2023-03-27T14:51:37.622Z,41.52
2023-03-27T14:54:26.463Z,40.93
2023-03-27T14:57:00.238Z,43.33
2023-03-27T14:59:29.887Z,44.49
2023-03-27T15:02:04.342Z,44.77
2023-03-27T15:04:33.370Z,44.92
2023-03-27T15:07:18.757Z,44.50
2023-03-27T15:10:28.142Z,47.81
2023-03-27T15:13:34.052Z,47.91
2023-03-27T15:16:00.992Z,47.75
2023-03-27T15:18:33.312Z,50.02
2023-03-27T15:21:14.408Z,53.56
2023-03-27T15:24:10.707Z,58.18
2023-03-27T15:26:39.269Z,65.25
2023-03-27T15:29:42.888Z,79.01
2023-03-27T15:32:18.806Z,93.87
2023-03-27T15:34:51.216Z,100.00
2023-03-27T15:37:25.430Z,100.00
2023-03-27T15:39:59.386Z,100.00
2023-03-27T15:42:32.643Z,100.00
2023-03-27T15:45:03.119Z,100.00
2023-03-27T15:47:31.370Z,100.00
2023-03-27T15:50:16.829Z,100.00
2023-03-27T15:52:48.415Z,100.00
2023-03-27T15:55:33.091Z,73.81
2023-03-27T15:58:00.244Z,64.51
2023-03-27T16:00:28.863Z,60.66
2023-03-27T16:02:56.339Z,56.45
2023-03-27T16:05:23.161Z,51.53
2023-03-27T16:07:49.962Z,50.34
2023-03-27T16:10:31.849Z,48.78
2023-03-27T16:13:02.794Z,50.00
2023-03-27T16:15:35.909Z,55.45
2023-03-27T16:18:15.926Z,61.87
2023-03-27T16:20:45.227Z,71.13
2023-03-27T16:23:11.884Z,82.59
2023-03-27T16:25:39.006Z,95.57
2023-03-27T16:28:07.751Z,100.00
2023-03-27T16:30:38.711Z,100.00
2023-03-27T16:33:17.079Z,100.00
2023-03-27T16:35:45.809Z,100.00
2023-03-27T16:38:14.266Z,100.00
2023-03-27T16:40:41.158Z,100.00
2023-03-27T16:43:07.861Z,100.00
2023-03-27T16:45:34.752Z,100.00
2023-03-27T16:48:01.546Z,100.00
2023-03-27T16:50:29.691Z,100.00
2023-03-27T16:52:56.938Z,100.00
2023-03-27T16:55:24.100Z,100.00
2023-03-27T16:57:52.440Z,100.00
2023-03-27T17:00:20.083Z,100.00
2023-03-27T17:02:47.068Z,100.00
2023-03-27T17:05:14.644Z,100.00
2023-03-27T17:07:41.857Z,100.00
2023-03-27T17:10:10.183Z,100.00
2023-03-27T17:12:36.916Z,100.00
2023-03-27T17:15:04.005Z,100.00
2023-03-27T17:17:30.846Z,100.00
2023-03-27T17:19:57.587Z,100.00
2023-03-27T17:22:26.354Z,100.00
2023-03-27T17:24:56.818Z,100.00
2023-03-27T17:27:26.316Z,100.00
2023-03-27T17:29:55.465Z,100.00
2023-03-27T17:32:22.575Z,100.00
2023-03-27T17:34:50.832Z,100.00
2023-03-27T17:37:18.802Z,100.00
2023-03-27T17:39:45.375Z,100.00
2023-03-27T17:42:12.005Z,100.00
2023-03-27T17:44:39.582Z,100.00
2023-03-27T17:47:07.541Z,100.00
2023-03-27T17:49:34.832Z,100.00
2023-03-27T17:52:07.562Z,100.00
2023-03-27T17:54:34.842Z,100.00
2023-03-27T17:57:01.916Z,100.00
2023-03-27T17:59:30.899Z,100.00
2023-03-27T18:01:58.398Z,100.00
2023-03-27T18:04:25.209Z,100.00
2023-03-27T18:06:52.447Z,100.00
2023-03-27T18:09:19.349Z,100.00
2023-03-27T18:11:46.035Z,100.00
2023-03-27T18:14:12.766Z,100.00
2023-03-27T18:16:39.424Z,100.00
2023-03-27T18:19:06.071Z,100.00
2023-03-27T18:21:32.704Z,100.00
2023-03-27T18:24:01.730Z,100.00
2023-03-27T18:26:28.495Z,100.00
2023-03-27T18:28:55.232Z,100.00
2023-03-27T18:31:21.911Z,100.00
2023-03-27T18:33:48.711Z,100.00
2023-03-27T18:36:15.364Z,100.00
2023-03-27T18:38:42.433Z,100.00
2023-03-27T18:41:10.483Z,100.00
2023-03-27T18:43:37.325Z,100.00
2023-03-27T18:46:06.018Z,100.00
2023-03-27T18:48:33.379Z,100.00
2023-03-27T18:51:02.624Z,100.00
2023-03-27T18:53:30.294Z,100.00
2023-03-27T18:55:58.412Z,100.00
2023-03-27T18:58:27.626Z,100.00
2023-03-27T19:00:55.688Z,100.00
2023-03-27T19:03:24.997Z,100.00
2023-03-27T19:05:52.825Z,100.00
2023-03-27T19:08:21.247Z,100.00
2023-03-27T19:10:48.271Z,100.00
2023-03-27T19:13:24.625Z,100.00
2023-03-27T19:16:19.921Z,100.00
2023-03-27T19:19:15.551Z,100.00
2023-03-27T19:21:51.136Z,100.00
2023-03-27T19:24:31.122Z,100.00
2023-03-27T19:26:58.819Z,100.00
2023-03-27T19:29:25.763Z,100.00
2023-03-27T19:31:53.426Z,100.00
2023-03-27T19:34:32.690Z,100.00
2023-03-27T19:37:08.416Z,100.00
2023-03-27T19:39:35.150Z,100.00
2023-03-27T19:42:02.104Z,100.00
2023-03-27T19:44:28.762Z,100.00
2023-03-27T19:46:55.507Z,100.00
2023-03-27T19:49:22.153Z,100.00
2023-03-27T19:52:04.355Z,100.00
2023-03-27T19:54:31.384Z,100.00
2023-03-27T19:56:58.201Z,100.00
2023-03-27T19:59:30.722Z,100.00
2023-03-27T20:01:58.419Z,100.00
2023-03-27T20:04:25.397Z,100.00
2023-03-27T20:06:52.131Z,100.00
2023-03-27T20:09:19.231Z,100.00
2023-03-27T20:11:46.675Z,100.00
2023-03-27T20:14:13.703Z,100.00
2023-03-27T20:16:40.495Z,100.00
2023-03-27T20:19:09.220Z,100.00
2023-03-27T20:21:39.009Z,100.00
2023-03-27T20:24:10.668Z,100.00
2023-03-27T20:26:41.811Z,100.00
2023-03-27T20:29:18.428Z,100.00
2023-03-27T20:31:46.356Z,100.00
2023-03-27T20:34:13.076Z,100.00
2023-03-27T20:36:43.367Z,100.00
2023-03-27T20:39:34.764Z,100.00
2023-03-27T20:42:01.422Z,100.00
2023-03-27T20:44:35.974Z,100.00
2023-03-27T20:47:03.497Z,100.00
2023-03-27T20:49:40.855Z,100.00
2023-03-27T20:52:09.972Z,100.00
2023-03-27T20:54:36.826Z,100.00
2023-03-27T20:57:03.807Z,100.00
2023-03-27T20:59:31.056Z,100.00
2023-03-27T21:01:59.333Z,100.00
2023-03-27T21:04:28.344Z,100.00
2023-03-27T21:06:55.603Z,100.00
2023-03-27T21:09:23.436Z,100.00
2023-03-27T21:11:53.439Z,100.00
2023-03-27T21:14:20.565Z,100.00
2023-03-27T21:16:47.654Z,100.00
2023-03-27T21:19:14.471Z,100.00
2023-03-27T21:21:41.282Z,100.00
2023-03-27T21:24:08.009Z,100.00
2023-03-27T21:26:35.303Z,100.00
2023-03-27T21:29:03.290Z,100.00
2023-03-27T21:31:30.695Z,100.00
2023-03-27T21:33:57.876Z,100.00
2023-03-27T21:36:26.419Z,100.00
2023-03-27T21:38:54.596Z,100.00
2023-03-27T21:41:21.672Z,100.00
2023-03-27T21:43:48.257Z,100.00
2023-03-27T21:46:14.989Z,100.00
2023-03-27T21:48:44.005Z,100.00
2023-03-27T21:51:10.924Z,100.00
2023-03-27T21:53:37.648Z,100.00
2023-03-27T21:56:04.536Z,100.00
2023-03-27T21:58:31.194Z,100.00
2023-03-27T22:00:58.437Z,100.00
2023-03-27T22:03:26.899Z,100.00
2023-03-27T22:06:07.755Z,100.00
2023-03-27T22:08:36.696Z,100.00
2023-03-27T22:11:03.473Z,100.00
2023-03-27T22:13:30.201Z,100.00
2023-03-27T22:15:57.141Z,100.00
2023-03-27T22:18:24.796Z,100.00
2023-03-27T22:20:51.453Z,100.00
2023-03-27T22:23:18.059Z,100.00
2023-03-27T22:25:52.138Z,100.00
2023-03-27T22:28:18.679Z,100.00
2023-03-27T22:30:45.397Z,100.00
2023-03-27T22:33:11.950Z,100.00
2023-03-27T22:35:38.679Z,100.00
2023-03-27T22:38:05.254Z,100.00
2023-03-27T22:40:31.872Z,100.00
2023-03-27T22:42:58.516Z,100.00
2023-03-27T22:45:25.228Z,100.00
2023-03-27T22:47:51.984Z,100.00
2023-03-27T22:50:18.543Z,100.00
2023-03-27T22:52:45.356Z,100.00
2023-03-27T22:55:11.953Z,100.00
2023-03-27T22:57:38.617Z,100.00
2023-03-27T23:00:06.888Z,100.00
2023-03-27T23:02:33.741Z,100.00
2023-03-27T23:05:00.732Z,100.00
2023-03-27T23:07:31.723Z,100.00
2023-03-27T23:09:58.342Z,100.00
2023-03-27T23:12:24.900Z,100.00
2023-03-27T23:14:51.698Z,100.00
2023-03-27T23:17:18.379Z,100.00
2023-03-27T23:19:46.152Z,100.00
2023-03-27T23:22:12.778Z,100.00
2023-03-27T23:24:39.440Z,100.00
2023-03-27T23:27:08.313Z,100.00
2023-03-27T23:29:35.311Z,100.00
2023-03-27T23:32:01.978Z,100.00
2023-03-27T23:34:28.738Z,100.00
2023-03-27T23:36:55.422Z,100.00
2023-03-27T23:39:22.067Z,100.00
2023-03-27T23:41:48.682Z,100.00
2023-03-27T23:44:15.351Z,100.00
2023-03-27T23:46:41.888Z,100.00
2023-03-27T23:49:08.468Z,100.00
2023-03-27T23:51:35.139Z,100.00
2023-03-27T23:54:01.738Z,100.00
2023-03-27T23:56:28.413Z,100.00
2023-03-27T23:58:55.108Z,100.00
